Time;durP1;ratioP1;P1;durP2;ratioP2;P2;SDS_P1;SDS_P2;PMS_P1;PMS_P2;Temp;Humidity;BMP_temperature;BMP_pressure;BME280_temperature;BME280_humidity;BME280_pressure;Samples;Min_cycle;Max_cycle;Signal;HPM_P1;HPM_P2
2021/05/01 00:00:07;;;;;;;22.13;16.67;;;17.10;56.30;;;;;;5051703;28;20035;-60
2021/05/01 00:02:33;;;;;;;18.73;15.80;;;17.10;56.20;;;;;;5035663;28;20029;-63
2021/05/01 00:04:58;;;;;;;22.73;16.23;;;17.10;56.20;;;;;;5067751;28;20424;-62
2021/05/01 00:07:24;;;;;;;20.63;16.17;;;17.10;56.20;;;;;;5071071;28;20028;-61
2021/05/01 00:09:49;;;;;;;19.52;15.32;;;17.10;56.30;;;;;;5068856;28;20032;-62
2021/05/01 00:12:16;;;;;;;21.30;16.15;;;17.10;56.30;;;;;;5052761;28;20040;-62
2021/05/01 00:14:42;;;;;;;20.17;16.10;;;17.10;56.30;;;;;;5058791;28;20028;-62
2021/05/01 00:17:07;;;;;;;19.45;15.88;;;17.00;56.30;;;;;;5051100;28;20029;-64
2021/05/01 00:19:33;;;;;;;21.05;16.08;;;17.00;56.40;;;;;;5068001;28;20070;-63
2021/05/01 00:21:59;;;;;;;18.40;15.10;;;17.00;56.40;;;;;;5071264;28;20025;-61
2021/05/01 00:24:24;;;;;;;20.00;15.52;;;17.00;56.60;;;;;;5037177;28;20032;-63
2021/05/01 00:26:50;;;;;;;19.65;15.52;;;17.00;56.90;;;;;;5033078;28;20388;-59
2021/05/01 00:29:15;;;;;;;20.77;15.27;;;16.90;56.90;;;;;;5038736;28;20024;-61
2021/05/01 00:31:41;;;;;;;21.85;16.35;;;16.90;57.00;;;;;;5071321;28;20468;-61
2021/05/01 00:34:06;;;;;;;19.63;15.75;;;16.90;57.10;;;;;;5070792;28;20111;-61
2021/05/01 00:36:32;;;;;;;20.63;16.45;;;16.80;57.10;;;;;;5041736;28;20028;-61
2021/05/01 00:38:58;;;;;;;21.52;15.98;;;16.80;57.20;;;;;;5071102;28;20067;-64
2021/05/01 00:41:24;;;;;;;19.88;15.75;;;16.80;57.30;;;;;;5048853;28;20029;-62
2021/05/01 00:43:50;;;;;;;18.80;14.77;;;16.80;57.30;;;;;;5059331;28;20024;-62
2021/05/01 00:46:16;;;;;;;19.08;15.00;;;16.80;57.30;;;;;;5052250;28;20017;-62
2021/05/01 00:48:41;;;;;;;20.13;15.63;;;16.70;57.50;;;;;;5032627;28;20114;-62
2021/05/01 00:51:07;;;;;;;18.52;15.05;;;16.70;57.50;;;;;;5051013;28;20053;-62
2021/05/01 00:53:33;;;;;;;20.58;15.43;;;16.70;57.50;;;;;;5050786;28;20083;-62
2021/05/01 00:55:59;;;;;;;18.80;15.25;;;16.70;57.60;;;;;;5050693;28;20021;-62
2021/05/01 00:58:26;;;;;;;18.55;14.68;;;16.70;57.50;;;;;;5050425;28;20037;-62
2021/05/01 01:01:17;;;;;;;19.95;14.88;;;16.70;57.50;;;;;;5032744;28;20484;-62
2021/05/01 01:03:43;;;;;;;19.00;15.75;;;16.70;57.40;;;;;;5033049;28;20025;-64
2021/05/01 01:06:09;;;;;;;20.95;15.52;;;16.70;57.50;;;;;;5050271;28;20029;-61
2021/05/01 01:08:35;;;;;;;20.25;15.23;;;16.70;57.40;;;;;;5050540;28;20078;-61
2021/05/01 01:11:00;;;;;;;19.77;15.00;;;16.60;57.40;;;;;;5051158;28;20119;-62
2021/05/01 01:13:26;;;;;;;19.88;15.45;;;16.60;57.40;;;;;;5036503;28;20054;-62
2021/05/01 01:15:52;;;;;;;20.17;15.10;;;16.60;57.60;;;;;;5053994;28;20035;-62
2021/05/01 01:18:17;;;;;;;19.30;15.15;;;16.60;57.50;;;;;;5053156;28;20163;-62
2021/05/01 01:20:43;;;;;;;19.98;15.05;;;16.60;57.50;;;;;;5036529;28;20025;-60
2021/05/01 01:23:09;;;;;;;20.35;15.48;;;16.60;57.70;;;;;;5036260;28;20032;-62
2021/05/01 01:25:35;;;;;;;20.38;15.18;;;16.60;57.70;;;;;;5035486;28;20021;-61
2021/05/01 01:28:01;;;;;;;19.80;16.17;;;16.50;57.60;;;;;;5054200;28;20112;-63
2021/05/01 01:30:31;;;;;;;21.25;15.60;;;16.60;57.60;;;;;;5054333;28;20041;-62
2021/05/01 01:33:05;;;;;;;19.30;15.00;;;16.50;57.60;;;;;;5035536;28;20057;-62
2021/05/01 01:35:30;;;;;;;18.80;15.25;;;16.50;57.60;;;;;;5053847;28;20017;-61
2021/05/01 01:37:56;;;;;;;20.33;16.60;;;16.50;57.70;;;;;;5054267;28;20021;-62
2021/05/01 01:40:22;;;;;;;19.50;15.40;;;16.50;57.60;;;;;;5053224;28;20032;-62
2021/05/01 01:42:49;;;;;;;21.13;15.93;;;16.50;57.60;;;;;;5036313;28;20025;-62
2021/05/01 01:45:22;;;;;;;19.50;15.40;;;16.50;57.70;;;;;;5053319;28;20453;-62
2021/05/01 01:47:47;;;;;;;20.90;16.23;;;16.50;57.70;;;;;;5073007;22;20084;-70
2021/05/01 01:50:18;;;;;;;21.52;16.85;;;16.50;57.70;;;;;;5067605;28;20121;-70
2021/05/01 01:52:44;;;;;;;20.13;15.73;;;16.50;57.80;;;;;;5069883;28;20097;-69
2021/05/01 01:55:16;;;;;;;20.30;16.70;;;16.40;57.90;;;;;;5056017;28;20483;-69
2021/05/01 01:57:42;;;;;;;19.60;15.55;;;16.40;57.80;;;;;;5073887;28;20047;-68
2021/05/01 02:00:11;;;;;;;19.85;16.15;;;16.40;57.90;;;;;;5055145;28;20097;-69
2021/05/01 02:02:37;;;;;;;22.27;16.77;;;16.40;57.80;;;;;;5041804;28;20017;-68
2021/05/01 02:05:04;;;;;;;18.83;15.25;;;16.40;57.80;;;;;;5056846;28;20028;-68
2021/05/01 02:07:29;;;;;;;21.33;16.95;;;16.40;57.80;;;;;;5055308;28;20059;-69
2021/05/01 02:09:55;;;;;;;19.48;16.02;;;16.40;57.80;;;;;;5051829;28;20048;-67
2021/05/01 02:12:22;;;;;;;20.33;16.48;;;16.40;57.90;;;;;;5050384;28;20582;-68
2021/05/01 02:14:48;;;;;;;23.38;16.13;;;16.40;57.80;;;;;;5058151;28;20025;-68
2021/05/01 02:17:13;;;;;;;20.52;15.77;;;16.40;57.80;;;;;;5034281;28;20082;-68
2021/05/01 02:19:39;;;;;;;20.00;15.90;;;16.40;57.80;;;;;;5053578;28;20033;-68
2021/05/01 02:22:04;;;;;;;19.45;15.93;;;16.40;57.80;;;;;;5035505;28;20110;-69
2021/05/01 02:24:30;;;;;;;19.75;15.85;;;16.40;57.80;;;;;;5053019;28;20043;-68
2021/05/01 02:26:55;;;;;;;20.27;16.25;;;16.40;57.80;;;;;;5070337;28;20028;-68
2021/05/01 02:29:21;;;;;;;19.52;15.93;;;16.30;57.80;;;;;;5072339;28;20407;-68
2021/05/01 02:31:47;;;;;;;18.63;15.73;;;16.30;58.30;;;;;;5066673;28;20029;-68
2021/05/01 02:34:13;;;;;;;21.77;16.17;;;16.40;57.80;;;;;;5067756;28;20029;-68
2021/05/01 02:36:38;;;;;;;20.42;16.13;;;16.40;57.70;;;;;;5063827;28;20028;-67
2021/05/01 02:39:05;;;;;;;20.55;15.38;;;16.30;57.70;;;;;;5073123;28;20037;-68
2021/05/01 02:41:31;;;;;;;20.02;15.88;;;16.30;57.80;;;;;;5054620;28;20048;-68
2021/05/01 02:43:56;;;;;;;19.67;15.55;;;16.30;57.80;;;;;;5069585;28;20071;-68
2021/05/01 02:46:22;;;;;;;19.45;15.30;;;16.30;57.80;;;;;;5068059;28;20078;-68
2021/05/01 02:48:47;;;;;;;21.40;16.10;;;16.30;57.70;;;;;;5052963;28;20082;-68
2021/05/01 02:51:13;;;;;;;19.27;15.25;;;16.40;57.70;;;;;;5065074;28;20082;-68
2021/05/01 02:53:38;;;;;;;20.98;15.88;;;16.40;57.60;;;;;;5065527;28;20423;-68
2021/05/01 02:56:04;;;;;;;21.30;16.50;;;16.40;57.70;;;;;;5053880;28;20025;-68
2021/05/01 02:58:29;;;;;;;20.90;16.17;;;16.40;57.80;;;;;;5054929;28;20111;-68
2021/05/01 03:00:55;;;;;;;19.67;16.27;;;16.40;57.70;;;;;;5067010;28;20151;-68
2021/05/01 03:03:21;;;;;;;20.88;16.23;;;16.40;57.70;;;;;;5037942;28;20043;-68
2021/05/01 03:05:46;;;;;;;19.42;15.48;;;16.30;57.80;;;;;;5072490;28;20397;-69
2021/05/01 03:08:12;;;;;;;19.25;15.38;;;16.40;57.80;;;;;;5058344;28;20036;-68
2021/05/01 03:10:37;;;;;;;22.85;16.90;;;16.40;57.80;;;;;;5053400;28;20024;-67
2021/05/01 03:13:03;;;;;;;22.05;16.58;;;16.40;57.70;;;;;;5070186;28;20031;-68
2021/05/01 03:15:28;;;;;;;22.05;15.90;;;16.30;57.70;;;;;;5056851;28;20442;-68
2021/05/01 03:17:54;;;;;;;20.10;16.33;;;16.30;57.70;;;;;;5055385;28;20036;-68
2021/05/01 03:20:20;;;;;;;19.70;16.23;;;16.30;57.70;;;;;;5034485;28;20029;-68
2021/05/01 03:22:47;;;;;;;21.85;15.85;;;16.30;57.60;;;;;;5050644;28;20044;-67
2021/05/01 03:25:14;;;;;;;20.55;15.50;;;16.30;57.60;;;;;;5034467;28;20031;-69
2021/05/01 03:27:40;;;;;;;19.95;15.32;;;16.40;57.60;;;;;;5051447;28;20021;-68
2021/05/01 03:30:10;;;;;;;21.45;15.63;;;16.30;57.50;;;;;;5034416;28;20029;-68
2021/05/01 03:32:36;;;;;;;19.27;15.10;;;16.30;57.50;;;;;;5060827;28;20051;-68
2021/05/01 03:35:03;;;;;;;20.08;15.95;;;16.30;57.50;;;;;;5070349;28;20060;-69
2021/05/01 03:37:29;;;;;;;20.17;15.40;;;16.30;57.50;;;;;;5061744;28;20032;-69
2021/05/01 03:39:54;;;;;;;20.17;16.00;;;16.30;57.50;;;;;;5055646;28;20395;-68
2021/05/01 03:42:20;;;;;;;22.27;16.27;;;16.30;57.50;;;;;;5057343;28;20029;-68
2021/05/01 03:44:45;;;;;;;20.42;16.40;;;16.30;57.50;;;;;;5060340;28;20472;-68
2021/05/01 03:47:11;;;;;;;22.15;16.13;;;16.30;57.50;;;;;;5058053;28;20032;-67
2021/05/01 03:49:37;;;;;;;19.50;15.18;;;16.30;57.50;;;;;;5046139;28;20037;-68
2021/05/01 03:52:03;;;;;;;21.20;16.23;;;16.30;57.60;;;;;;5047436;28;20045;-67
2021/05/01 03:54:29;;;;;;;19.75;15.38;;;16.30;57.60;;;;;;5064049;28;20032;-69
2021/05/01 03:56:55;;;;;;;20.23;15.32;;;16.30;57.50;;;;;;5070385;28;20017;-69
2021/05/01 03:59:20;;;;;;;20.65;15.65;;;16.30;57.60;;;;;;5051180;28;20091;-68
2021/05/01 04:01:46;;;;;;;20.15;15.52;;;16.30;57.60;;;;;;5051958;28;20075;-68
2021/05/01 04:04:12;;;;;;;19.58;14.77;;;16.30;57.60;;;;;;5067508;28;20028;-69
2021/05/01 04:06:38;;;;;;;20.05;15.70;;;16.30;57.50;;;;;;5050306;28;20033;-68
2021/05/01 04:09:04;;;;;;;19.40;15.60;;;16.30;57.60;;;;;;5051423;28;20496;-69
2021/05/01 04:11:31;;;;;;;19.05;14.88;;;16.30;57.60;;;;;;5051603;28;20032;-68
2021/05/01 04:13:56;;;;;;;19.85;15.57;;;16.20;57.60;;;;;;5060813;28;20100;-68
2021/05/01 04:16:22;;;;;;;19.30;15.50;;;16.20;57.70;;;;;;5052732;28;20107;-67
2021/05/01 04:18:48;;;;;;;20.73;15.57;;;16.20;57.70;;;;;;5071126;28;20036;-69
2021/05/01 04:21:15;;;;;;;19.85;16.05;;;16.20;57.70;;;;;;5066235;28;20052;-69
2021/05/01 04:23:40;;;;;;;20.48;15.93;;;16.20;57.60;;;;;;5046709;28;20021;-69
2021/05/01 04:26:06;;;;;;;20.08;15.65;;;16.20;57.60;;;;;;5066373;28;20017;-68
2021/05/01 04:28:32;;;;;;;19.52;15.55;;;16.20;57.60;;;;;;5071391;28;20399;-69
2021/05/01 04:30:58;;;;;;;21.15;16.63;;;16.20;57.70;;;;;;5067482;28;20044;-68
2021/05/01 04:33:24;;;;;;;21.17;16.52;;;16.20;57.80;;;;;;5059722;28;20079;-67
2021/05/01 04:35:50;;;;;;;19.98;16.13;;;16.20;57.80;;;;;;5033244;28;20491;-68
2021/05/01 04:38:16;;;;;;;19.98;16.23;;;16.20;57.70;;;;;;5051154;28;20032;-69
2021/05/01 04:40:43;;;;;;;20.25;16.25;;;16.20;57.70;;;;;;5052331;28;20025;-69
2021/05/01 04:43:10;;;;;;;19.23;15.55;;;16.20;57.70;;;;;;5044099;28;20056;-68
2021/05/01 04:45:37;;;;;;;20.67;16.25;;;16.20;57.60;;;;;;5058490;28;20025;-68
2021/05/01 04:48:04;;;;;;;20.60;16.30;;;16.20;57.70;;;;;;5052821;28;20553;-68
2021/05/01 04:50:30;;;;;;;21.08;15.38;;;16.20;57.70;;;;;;5072564;28;20037;-68
2021/05/01 04:52:56;;;;;;;20.60;16.40;;;16.20;57.60;;;;;;5041456;28;20561;-68
2021/05/01 04:55:23;;;;;;;21.88;17.00;;;16.20;57.60;;;;;;5055029;28;20060;-68
2021/05/01 04:57:49;;;;;;;20.73;16.20;;;16.20;57.50;;;;;;5058314;28;20024;-68
2021/05/01 05:00:17;;;;;;;20.35;16.50;;;16.20;57.60;;;;;;5056062;28;20119;-68
2021/05/01 05:02:43;;;;;;;21.58;17.20;;;16.20;57.60;;;;;;5046397;28;20036;-68
2021/05/01 05:05:10;;;;;;;20.23;15.82;;;16.20;57.60;;;;;;5054792;28;20084;-68
2021/05/01 05:07:36;;;;;;;19.52;14.82;;;16.20;57.60;;;;;;5063043;28;20546;-68
2021/05/01 05:10:01;;;;;;;21.10;16.60;;;16.20;57.60;;;;;;5056117;28;20067;-68
2021/05/01 05:12:27;;;;;;;19.15;15.73;;;16.20;57.70;;;;;;5047853;28;20036;-68
2021/05/01 05:14:52;;;;;;;19.95;15.68;;;16.20;57.70;;;;;;5060117;28;20036;-69
2021/05/01 05:17:18;;;;;;;19.80;15.85;;;16.20;57.60;;;;;;5059086;28;20039;-68
2021/05/01 05:19:45;;;;;;;20.65;16.10;;;16.20;57.50;;;;;;5054658;28;20033;-68
2021/05/01 05:22:10;;;;;;;22.85;16.20;;;16.20;57.50;;;;;;5066070;28;20070;-68
2021/05/01 05:24:37;;;;;;;21.35;16.17;;;16.20;57.50;;;;;;5071837;28;20028;-68
2021/05/01 05:27:03;;;;;;;19.33;16.02;;;16.20;57.50;;;;;;5053321;28;20091;-68
2021/05/01 05:29:29;;;;;;;20.60;15.65;;;16.20;57.40;;;;;;5072459;28;20028;-68
2021/05/01 05:31:55;;;;;;;19.05;15.40;;;16.20;57.50;;;;;;5054668;28;20033;-68
2021/05/01 05:34:20;;;;;;;23.10;16.83;;;16.20;57.50;;;;;;5065755;28;20045;-68
2021/05/01 05:36:46;;;;;;;19.55;15.05;;;16.20;57.50;;;;;;5069798;28;20040;-68
2021/05/01 05:39:11;;;;;;;21.00;15.82;;;16.20;57.40;;;;;;5056406;28;20075;-68
2021/05/01 05:41:37;;;;;;;19.20;14.95;;;16.20;57.50;;;;;;5074367;28;20020;-68
2021/05/01 05:44:04;;;;;;;18.80;15.07;;;16.20;57.50;;;;;;5068309;28;20040;-68
2021/05/01 05:46:30;;;;;;;20.00;15.23;;;16.20;57.50;;;;;;5063378;28;20514;-68
2021/05/01 05:48:55;;;;;;;19.98;14.75;;;16.20;57.40;;;;;;5056058;28;20059;-68
2021/05/01 05:51:21;;;;;;;17.58;13.88;;;16.20;57.40;;;;;;5056634;28;20032;-68
2021/05/01 05:53:47;;;;;;;19.67;15.70;;;16.20;57.40;;;;;;5055179;28;20044;-67
2021/05/01 05:56:13;;;;;;;20.80;15.90;;;16.20;57.40;;;;;;5055530;28;20029;-68
2021/05/01 05:58:41;;;;;;;19.67;16.38;;;16.20;57.40;;;;;;5043032;28;20028;-68
2021/05/01 06:01:06;;;;;;;19.13;15.30;;;16.20;57.40;;;;;;5055606;28;20033;-66
2021/05/01 06:03:34;;;;;;;18.95;14.68;;;16.20;57.30;;;;;;5059987;28;20028;-68
2021/05/01 06:06:07;;;;;;;21.02;15.90;;;16.20;57.40;;;;;;5055225;28;20024;-68
2021/05/01 06:08:33;;;;;;;20.80;15.27;;;16.20;57.40;;;;;;5039146;28;20071;-67
2021/05/01 06:11:01;;;;;;;23.42;17.58;;;16.20;57.40;;;;;;5062507;28;20402;-68
2021/05/01 06:13:31;;;;;;;22.92;17.50;;;16.20;57.70;;;;;;5059184;28;20028;-68
2021/05/01 06:15:58;;;;;;;22.40;17.35;;;16.30;57.50;;;;;;5047713;28;20029;-68
2021/05/01 06:18:25;;;;;;;19.95;15.07;;;16.30;57.30;;;;;;5045661;28;20043;-68
2021/05/01 06:20:51;;;;;;;19.85;15.57;;;16.30;57.10;;;;;;5050021;28;20029;-68
2021/05/01 06:23:20;;;;;;;20.50;15.55;;;16.40;57.10;;;;;;5066659;28;20024;-68
2021/05/01 06:25:47;;;;;;;19.42;15.02;;;16.40;57.10;;;;;;5066479;28;20466;-68
2021/05/01 06:28:14;;;;;;;20.33;15.57;;;16.40;57.00;;;;;;5056154;28;20057;-68
2021/05/01 06:30:41;;;;;;;20.85;15.93;;;16.50;56.80;;;;;;5076773;28;20032;-68
2021/05/01 06:33:10;;;;;;;20.15;15.48;;;16.60;56.60;;;;;;5038468;28;20029;-68
2021/05/01 06:35:41;;;;;;;20.80;15.88;;;16.70;56.50;;;;;;5029115;28;20021;-68
2021/05/01 06:38:07;;;;;;;19.53;14.23;;;16.70;56.40;;;;;;5048845;28;20086;-67
2021/05/01 06:40:43;;;;;;;20.55;13.68;;;16.80;56.20;;;;;;5045145;28;20056;-68
2021/05/01 06:43:27;;;;;;;17.58;13.38;;;16.90;56.00;;;;;;5057419;28;20025;-68
2021/05/01 06:45:54;;;;;;;20.23;14.45;;;16.90;55.90;;;;;;5046479;28;20025;-67
2021/05/01 06:48:24;;;;;;;18.17;13.23;;;17.00;55.90;;;;;;5028351;28;20025;-68
2021/05/01 06:50:51;;;;;;;19.25;15.10;;;17.00;55.80;;;;;;5047525;28;20020;-68
2021/05/01 06:53:26;;;;;;;24.08;19.05;;;17.00;55.80;;;;;;5052484;28;20108;-68
2021/05/01 06:55:52;;;;;;;20.58;16.50;;;17.00;55.80;;;;;;5064472;28;20025;-67
2021/05/01 06:58:21;;;;;;;19.10;15.20;;;17.10;55.90;;;;;;5053266;28;20028;-70
2021/05/01 07:00:47;;;;;;;21.50;15.52;;;17.10;55.90;;;;;;5046680;28;20021;-68
2021/05/01 07:03:15;;;;;;;20.63;14.95;;;17.10;55.80;;;;;;5046223;28;20104;-68
2021/05/01 07:05:41;;;;;;;20.20;15.75;;;17.20;55.80;;;;;;5034071;28;20444;-68
2021/05/01 07:08:07;;;;;;;19.33;15.65;;;17.20;55.80;;;;;;5063845;28;20027;-68
2021/05/01 07:10:33;;;;;;;17.63;14.30;;;17.20;55.70;;;;;;5065833;28;20040;-68
2021/05/01 07:13:00;;;;;;;18.63;14.75;;;17.20;55.70;;;;;;5048464;28;20066;-68
2021/05/01 07:15:26;;;;;;;17.77;14.40;;;17.20;55.60;;;;;;5066330;28;20028;-68
2021/05/01 07:17:52;;;;;;;18.08;14.77;;;17.20;55.60;;;;;;5050115;28;20133;-67
2021/05/01 07:20:20;;;;;;;17.80;14.10;;;17.30;55.60;;;;;;5045944;28;20078;-68
2021/05/01 07:22:48;;;;;;;18.08;13.70;;;17.20;55.50;;;;;;5057960;28;20099;-68
2021/05/01 07:25:15;;;;;;;18.33;14.27;;;17.30;55.50;;;;;;5042728;28;20495;-68
2021/05/01 07:27:56;;;;;;;18.35;13.45;;;17.20;55.40;;;;;;5064857;28;20108;-68
2021/05/01 07:30:24;;;;;;;19.20;13.50;;;17.30;55.50;;;;;;5064999;28;20425;-68
2021/05/01 07:32:55;;;;;;;18.67;14.40;;;17.30;55.30;;;;;;5063819;28;20012;-68
2021/05/01 07:35:24;;;;;;;18.73;13.47;;;17.40;55.30;;;;;;5047690;28;20530;-68
2021/05/01 07:37:51;;;;;;;18.25;13.73;;;17.40;55.10;;;;;;5048507;28;20025;-69
2021/05/01 07:40:28;;;;;;;19.70;13.43;;;17.40;55.00;;;;;;5065123;28;20028;-78
2021/05/01 07:42:55;;;;;;;98.70;87.82;;;17.50;55.20;;;;;;5044883;28;20020;-67
2021/05/01 07:45:22;;;;;;;62.20;54.70;;;17.50;55.30;;;;;;5047515;28;20752;-68
2021/05/01 07:47:56;;;;;;;33.63;25.25;;;17.50;55.40;;;;;;5045227;28;20055;-66
2021/05/01 07:50:23;;;;;;;24.60;19.80;;;17.50;55.70;;;;;;5071531;28;20055;-66
2021/05/01 07:52:50;;;;;;;23.98;18.00;;;17.50;55.80;;;;;;5052929;28;20087;-66
2021/05/01 07:55:16;;;;;;;24.48;18.42;;;17.50;56.50;;;;;;5045261;28;20036;-65
2021/05/01 07:57:41;;;;;;;24.45;16.95;;;17.50;57.40;;;;;;5052774;28;20846;-70
2021/05/01 08:00:08;;;;;;;28.55;18.27;;;17.50;57.20;;;;;;5051563;28;20068;-67
2021/05/01 08:02:35;;;;;;;55.83;36.03;;;17.60;56.40;;;;;;5047601;28;20505;-67
2021/05/01 08:05:01;;;;;;;32.22;22.83;;;17.50;56.30;;;;;;5050879;28;20221;-71
2021/05/01 08:07:27;;;;;;;29.50;19.55;;;17.60;56.10;;;;;;5047734;28;20490;-67
2021/05/01 08:09:52;;;;;;;178.27;145.15;;;17.60;56.10;;;;;;5072491;28;20036;-67
2021/05/01 08:12:18;;;;;;;84.07;63.00;;;17.60;56.10;;;;;;5062572;28;20032;-68
2021/05/01 08:14:44;;;;;;;78.90;59.42;;;17.60;55.80;;;;;;5043485;28;20039;-67
2021/05/01 08:17:09;;;;;;;66.70;49.20;;;17.60;55.90;;;;;;5062947;28;20029;-69
2021/05/01 08:19:35;;;;;;;64.88;47.22;;;17.60;55.80;;;;;;5064586;28;20581;-67
2021/05/01 08:22:00;;;;;;;57.88;43.33;;;17.60;56.20;;;;;;5043820;28;20051;-66
2021/05/01 08:24:26;;;;;;;67.30;44.67;;;17.70;55.90;;;;;;5052017;28;20033;-68
2021/05/01 08:26:51;;;;;;;66.78;42.30;;;17.70;55.80;;;;;;5057111;28;20082;-73
2021/05/01 08:29:17;;;;;;;68.28;41.78;;;17.70;56.10;;;;;;5064611;28;20051;-78
2021/05/01 08:31:42;;;;;;;62.70;42.50;;;17.80;56.80;;;;;;5043090;28;20369;-67
2021/05/01 08:34:08;;;;;;;82.43;42.95;;;17.90;57.50;;;;;;5030327;28;20037;-75
2021/05/01 08:36:34;;;;;;;62.78;39.50;;;17.90;57.80;;;;;;5045026;28;20063;-71
2021/05/01 08:38:59;;;;;;;61.05;38.03;;;17.90;57.00;;;;;;5045472;28;20095;-74
2021/05/01 08:41:25;;;;;;;80.85;36.15;;;18.00;56.40;;;;;;5045565;28;20103;-71
2021/05/01 08:43:51;;;;;;;54.92;34.10;;;18.00;56.50;;;;;;5031108;28;20062;-76
2021/05/01 08:46:21;;;;;;;49.47;31.42;;;17.80;57.30;;;;;;5051165;28;20024;-76
2021/05/01 08:48:48;;;;;;;45.70;30.50;;;17.70;57.20;;;;;;5040415;28;20037;-78
2021/05/01 08:51:17;;;;;;;46.53;28.52;;;17.70;57.70;;;;;;5030081;28;20031;-77
2021/05/01 08:53:43;;;;;;;44.17;28.42;;;17.70;57.80;;;;;;5037157;28;20020;-76
2021/05/01 08:56:09;;;;;;;45.17;24.75;;;17.70;57.30;;;;;;5033922;28;20033;-73
2021/05/01 08:58:34;;;;;;;35.63;23.88;;;17.80;57.00;;;;;;5044652;28;20031;-75
2021/05/01 09:01:01;;;;;;;41.47;25.30;;;17.80;56.70;;;;;;5034289;28;20065;-73
2021/05/01 09:03:26;;;;;;;38.67;22.63;;;17.80;56.30;;;;;;5062128;28;20051;-73
2021/05/01 09:05:55;;;;;;;35.85;20.83;;;17.80;56.40;;;;;;5068833;28;20053;-74
2021/05/01 09:08:22;;;;;;;27.73;19.17;;;17.80;56.60;;;;;;5069739;28;20031;-74
2021/05/01 09:10:50;;;;;;;28.27;18.30;;;17.80;56.50;;;;;;5053313;28;20484;-74
2021/05/01 09:13:19;;;;;;;27.08;19.65;;;17.80;56.60;;;;;;5070484;28;20384;-73
2021/05/01 09:15:55;;;;;;;40.20;31.45;;;17.80;56.10;;;;;;5070807;28;20479;-71
2021/05/01 09:18:21;;;;;;;31.50;24.65;;;17.80;56.50;;;;;;5051982;28;20033;-73
2021/05/01 09:20:47;;;;;;;30.75;21.85;;;17.80;56.20;;;;;;5051300;28;20025;-77
2021/05/01 09:23:12;;;;;;;23.35;18.42;;;17.90;55.90;;;;;;5070234;28;20438;-76
2021/05/01 09:25:59;;;;;;;22.52;17.08;;;18.00;55.50;;;;;;5070360;28;20029;-74
2021/05/01 09:28:26;;;;;;;19.45;16.23;;;18.10;55.30;;;;;;5070546;28;20078;-77
2021/05/01 09:31:07;;;;;;;21.15;16.15;;;18.20;55.20;;;;;;5071015;28;20044;-75
2021/05/01 09:33:37;;;;;;;19.85;15.00;;;18.30;54.90;;;;;;5054294;28;20013;-77
2021/05/01 09:36:16;;;;;;;17.25;13.40;;;18.30;54.60;;;;;;5054289;28;20036;-70
2021/05/01 09:38:52;;;;;;;18.95;13.63;;;18.30;54.30;;;;;;5054710;28;20028;-73
2021/05/01 09:41:20;;;;;;;17.27;12.88;;;18.30;54.30;;;;;;5054516;28;20499;-70
2021/05/01 09:44:02;;;;;;;16.70;12.27;;;18.40;54.20;;;;;;5036558;28;20051;-74
2021/05/01 09:46:30;;;;;;;18.90;11.65;;;18.40;54.40;;;;;;5041891;28;20225;-72
2021/05/01 09:49:02;;;;;;;18.90;12.10;;;18.40;54.20;;;;;;5074153;28;20033;-73
2021/05/01 09:51:45;;;;;;;14.80;11.70;;;18.40;54.30;;;;;;5056278;28;20530;-74
2021/05/01 09:54:16;;;;;;;15.13;11.48;;;18.40;54.10;;;;;;5055999;28;20368;-73
2021/05/01 09:56:43;;;;;;;13.77;10.57;;;18.40;54.10;;;;;;5056438;28;20028;-72
2021/05/01 09:59:09;;;;;;;12.90;10.57;;;18.30;54.10;;;;;;5072756;28;20102;-74
2021/05/01 10:01:35;;;;;;;14.13;9.90;;;18.30;54.10;;;;;;5065170;28;20112;-73
2021/05/01 10:04:20;;;;;;;14.88;11.02;;;18.30;54.20;;;;;;5057900;28;20021;-73
2021/05/01 10:06:50;;;;;;;15.57;11.68;;;18.30;54.20;;;;;;5053929;28;20067;-73
2021/05/01 10:09:27;;;;;;;13.90;10.27;;;18.30;54.20;;;;;;5069209;28;20032;-74
2021/05/01 10:12:08;;;;;;;13.20;10.38;;;18.30;54.20;;;;;;5053764;28;20021;-74
2021/05/01 10:14:44;;;;;;;13.02;10.18;;;18.30;54.10;;;;;;5035837;28;20033;-73
2021/05/01 10:17:17;;;;;;;11.88;8.95;;;18.30;54.10;;;;;;5035899;28;20029;-73
2021/05/01 10:19:47;;;;;;;12.95;8.88;;;18.30;54.00;;;;;;5052822;28;20387;-73
2021/05/01 10:22:40;;;;;;;12.23;9.38;;;18.30;54.00;;;;;;5053599;28;20021;-74
2021/05/01 10:25:10;;;;;;;12.82;8.93;;;18.30;53.90;;;;;;5060647;28;20068;-74
2021/05/01 10:27:46;;;;;;;34.40;26.88;;;18.40;53.90;;;;;;5057803;28;20132;-73
2021/05/01 10:30:27;;;;;;;39.92;30.38;;;18.40;53.70;;;;;;5063922;28;20039;-71
2021/05/01 10:33:17;;;;;;;20.63;16.48;;;18.60;53.40;;;;;;5034869;28;20053;-75
2021/05/01 10:35:57;;;;;;;23.33;17.50;;;18.70;53.20;;;;;;5059717;28;20087;-73
2021/05/01 10:38:23;;;;;;;22.17;16.88;;;18.90;52.70;;;;;;5052392;28;20029;-70
2021/05/01 10:40:55;;;;;;;23.23;15.90;;;19.00;52.40;;;;;;5065136;28;20035;-72
2021/05/01 10:43:23;;;;;;;16.90;13.43;;;19.40;51.90;;;;;;5054487;28;20021;-72
2021/05/01 10:45:57;;;;;;;18.48;13.43;;;19.60;51.10;;;;;;5054233;28;20055;-72
2021/05/01 10:48:24;;;;;;;21.25;12.82;;;19.60;51.00;;;;;;5054119;28;20032;-72
2021/05/01 10:51:05;;;;;;;15.85;12.00;;;19.60;51.30;;;;;;5072348;28;20078;-72
2021/05/01 10:53:31;;;;;;;13.48;10.82;;;19.60;51.00;;;;;;5072318;28;20078;-72
2021/05/01 10:55:57;;;;;;;13.05;10.90;;;19.80;50.90;;;;;;5071778;28;20438;-71
2021/05/01 10:58:30;;;;;;;16.60;10.68;;;20.10;49.90;;;;;;5054059;28;20024;-74
2021/05/01 11:00:56;;;;;;;12.40;10.57;;;20.20;49.50;;;;;;5072168;28;20107;-72
2021/05/01 11:03:22;;;;;;;15.23;12.15;;;20.30;49.50;;;;;;5054228;28;20103;-73
2021/05/01 11:05:50;;;;;;;15.90;10.90;;;20.30;49.20;;;;;;5053583;28;20415;-72
2021/05/01 11:08:29;;;;;;;15.07;10.15;;;20.10;49.40;;;;;;5071567;28;20021;-71
2021/05/01 11:10:57;;;;;;;13.38;9.63;;;20.00;49.70;;;;;;5082739;28;20028;-71
2021/05/01 11:13:25;;;;;;;11.50;8.57;;;19.90;50.10;;;;;;5071669;28;20082;-71
2021/05/01 11:15:56;;;;;;;11.90;8.93;;;19.80;50.60;;;;;;5070546;28;20042;-72
2021/05/01 11:18:24;;;;;;;11.67;8.33;;;19.70;50.80;;;;;;5053106;28;20519;-72
2021/05/01 11:20:53;;;;;;;13.18;9.60;;;19.60;50.90;;;;;;5067550;28;20298;-72
2021/05/01 11:23:20;;;;;;;17.45;10.90;;;19.60;51.00;;;;;;5034644;28;20025;-71
2021/05/01 11:25:46;;;;;;;13.48;8.93;;;19.50;51.10;;;;;;5034309;28;20507;-72
2021/05/01 11:28:13;;;;;;;14.60;8.57;;;19.50;51.10;;;;;;5052410;28;20071;-73
2021/05/01 11:30:40;;;;;;;12.07;8.93;;;19.50;51.20;;;;;;5051671;28;20032;-73
2021/05/01 11:33:07;;;;;;;14.05;9.68;;;19.50;51.50;;;;;;5069749;28;20062;-71
2021/05/01 11:35:34;;;;;;;13.05;9.75;;;19.50;51.30;;;;;;5071799;28;20021;-71
2021/05/01 11:38:01;;;;;;;20.17;11.00;;;19.40;51.60;;;;;;5072205;28;20028;-71
2021/05/01 11:40:32;;;;;;;15.35;9.77;;;19.30;51.70;;;;;;5053786;28;20028;-71
2021/05/01 11:42:59;;;;;;;13.85;8.95;;;19.30;51.60;;;;;;5054289;28;20168;-71
2021/05/01 11:45:40;;;;;;;16.00;9.02;;;19.30;51.90;;;;;;5053766;28;20036;-72
2021/05/01 11:48:10;;;;;;;14.52;7.75;;;19.30;51.80;;;;;;5070790;28;20029;-73
2021/05/01 11:50:38;;;;;;;11.52;7.22;;;19.20;51.70;;;;;;5069344;28;20025;-72
2021/05/01 11:53:28;;;;;;;12.75;7.30;;;19.20;51.80;;;;;;5069320;28;20052;-73
2021/05/01 11:56:00;;;;;;;12.60;7.63;;;19.30;52.00;;;;;;5067228;28;20044;-72
2021/05/01 11:58:33;;;;;;;16.02;7.38;;;19.30;51.80;;;;;;5053474;28;20028;-72
2021/05/01 12:01:18;;;;;;;16.88;6.55;;;19.30;51.80;;;;;;5060318;28;20036;-72
2021/05/01 12:04:00;;;;;;;10.63;7.65;;;19.40;52.00;;;;;;5053765;28;20048;-71
2021/05/01 12:06:29;;;;;;;10.40;7.80;;;19.50;51.80;;;;;;5053229;28;20031;-71
2021/05/01 12:09:03;;;;;;;11.05;7.20;;;19.50;51.50;;;;;;5071417;28;20024;-73
2021/05/01 12:11:30;;;;;;;16.92;6.90;;;19.50;51.50;;;;;;5060850;28;20111;-72
2021/05/01 12:13:59;;;;;;;14.43;8.80;;;19.40;51.50;;;;;;5057706;28;20546;-71
2021/05/01 12:16:25;;;;;;;19.48;7.15;;;19.40;50.90;;;;;;5056692;28;20028;-72
2021/05/01 12:18:53;;;;;;;25.98;6.40;;;19.50;51.90;;;;;;5067369;28;20032;-70
2021/05/01 12:21:19;;;;;;;19.10;6.55;;;19.60;51.70;;;;;;5066943;28;20415;-69
2021/05/01 12:23:50;;;;;;;16.10;6.28;;;19.60;51.70;;;;;;5066315;28;20472;-73
2021/05/01 12:26:51;;;;;;;15.00;5.75;;;19.70;51.50;;;;;;5050398;28;20029;-72
2021/05/01 12:29:23;;;;;;;16.88;6.07;;;19.70;51.10;;;;;;4992862;28;20057;-73
2021/05/01 12:31:51;;;;;;;12.10;5.75;;;19.70;51.50;;;;;;5053787;28;20055;-73